Time;durP1;ratioP1;P1;durP2;ratioP2;P2;SDS_P1;SDS_P2;PMS_P1;PMS_P2;Temp;Humidity;BMP_temperature;BMP_pressure;BME280_temperature;BME280_humidity;BME280_pressure;Samples;Min_cycle;Max_cycle;Signal;HPM_P1;HPM_P2
2021/03/23 00:00:26;;;;;;;12.73;10.40;;;;;;;;;;5077295;28;20227;-80
2021/03/23 00:03:12;;;;;;;11.70;10.00;;;;;;;;;;5078262;28;20199;-81
2021/03/23 00:05:38;;;;;;;11.18;9.60;;;;;;;;;;5077076;28;20209;-80
2021/03/23 00:08:05;;;;;;;13.75;10.70;;;;;;;;;;5069013;28;20215;-81
2021/03/23 00:10:32;;;;;;;12.35;11.10;;;;;;;;;;5074496;28;20253;-81
2021/03/23 00:12:58;;;;;;;11.35;9.80;;;;;;;;;;5072670;28;20226;-80
2021/03/23 00:15:24;;;;;;;13.93;10.17;;;;;;;;;;5078366;28;20283;-80
2021/03/23 00:17:50;;;;;;;11.73;10.53;;;;;;;;;;5077606;28;20431;-80
2021/03/23 00:20:19;;;;;;;15.90;10.48;;;;;;;;;;5073023;28;20507;-80
2021/03/23 00:22:45;;;;;;;11.27;9.75;;;;;;;;;;5069589;28;20235;-80
2021/03/23 00:25:11;;;;;;;15.40;10.77;;;;;;;;;;5075999;28;20209;-80
2021/03/23 00:27:38;;;;;;;13.13;11.38;;;;;;;;;;5077349;28;20547;-80
2021/03/23 00:30:05;;;;;;;13.43;11.57;;;;;;;;;;5078434;28;20715;-80
2021/03/23 00:32:31;;;;;;;14.63;11.88;;;;;;;;;;5077204;28;20217;-80
2021/03/23 00:34:58;;;;;;;13.00;11.60;;;;;;;;;;5073584;28;20592;-80
2021/03/23 00:37:24;;;;;;;16.73;12.05;;;;;;;;;;5075169;28;20539;-80
2021/03/23 00:39:50;;;;;;;13.40;11.57;;;;;;;;;;5078102;28;20189;-80
2021/03/23 00:42:16;;;;;;;17.00;12.63;;;;;;;;;;5075568;28;20443;-80
2021/03/23 00:44:42;;;;;;;18.70;14.02;;;;;;;;;;5063259;28;20447;-80
2021/03/23 00:47:08;;;;;;;16.55;12.82;;;;;;;;;;5076064;28;20291;-80
2021/03/23 00:49:34;;;;;;;17.83;13.47;;;;;;;;;;5069772;28;20212;-80
2021/03/23 00:52:00;;;;;;;18.77;14.23;;;;;;;;;;5077142;28;20435;-81
2021/03/23 00:54:26;;;;;;;20.00;12.57;;;;;;;;;;5073869;28;20450;-80
2021/03/23 00:56:52;;;;;;;20.00;13.10;;;;;;;;;;5080107;28;20439;-79
2021/03/23 00:59:18;;;;;;;18.90;12.30;;;;;;;;;;5088078;28;20442;-80
2021/03/23 01:01:44;;;;;;;19.27;14.40;;;;;;;;;;5093747;28;20442;-80
2021/03/23 01:04:10;;;;;;;14.80;12.70;;;;;;;;;;5072584;28;20443;-79
2021/03/23 01:06:36;;;;;;;17.23;13.70;;;;;;;;;;5084487;28;20209;-79
2021/03/23 01:09:02;;;;;;;19.53;14.00;;;;;;;;;;5090975;28;20286;-79
2021/03/23 01:11:28;;;;;;;16.73;13.18;;;;;;;;;;5092442;28;20415;-80
2021/03/23 01:13:54;;;;;;;16.77;14.63;;;;;;;;;;5093713;28;20208;-80
2021/03/23 01:16:20;;;;;;;19.20;12.70;;;;;;;;;;5093882;28;20462;-79
2021/03/23 01:18:46;;;;;;;17.00;13.30;;;;;;;;;;5091666;28;20439;-79
2021/03/23 01:21:11;;;;;;;16.67;14.40;;;;;;;;;;5079146;28;20431;-80
2021/03/23 01:23:37;;;;;;;19.70;14.83;;;;;;;;;;5076816;28;20422;-79
2021/03/23 01:26:03;;;;;;;17.13;13.50;;;;;;;;;;5078572;28;20458;-79
2021/03/23 01:28:29;;;;;;;17.37;12.83;;;;;;;;;;5094602;28;20963;-79
2021/03/23 01:30:55;;;;;;;16.43;13.50;;;;;;;;;;5074339;28;20837;-80
2021/03/23 01:33:21;;;;;;;19.33;13.80;;;;;;;;;;5082739;28;20989;-80
2021/03/23 01:35:47;;;;;;;20.15;14.60;;;;;;;;;;5075851;28;20466;-80
2021/03/23 01:38:13;;;;;;;20.57;14.50;;;;;;;;;;5066947;28;20189;-80
2021/03/23 01:40:39;;;;;;;19.33;15.13;;;;;;;;;;5074837;28;20498;-80
2021/03/23 01:43:07;;;;;;;18.27;15.30;;;;;;;;;;5080986;28;20215;-80
2021/03/23 01:45:34;;;;;;;19.70;14.18;;;;;;;;;;5077265;28;20442;-80
2021/03/23 01:48:02;;;;;;;19.50;14.10;;;;;;;;;;5072638;28;20193;-79
2021/03/23 01:50:28;;;;;;;21.73;17.00;;;;;;;;;;5087694;28;20276;-80
2021/03/23 01:53:08;;;;;;;14.85;13.20;;;;;;;;;;5053404;28;20598;-80
2021/03/23 01:55:35;;;;;;;23.55;16.95;;;;;;;;;;5075472;28;20208;-80
2021/03/23 01:58:01;;;;;;;22.77;15.55;;;;;;;;;;5076121;28;20254;-80
2021/03/23 02:00:27;;;;;;;22.77;17.85;;;;;;;;;;5078026;28;20185;-80
2021/03/23 02:02:53;;;;;;;22.88;17.25;;;;;;;;;;5075233;28;20177;-80
2021/03/23 02:05:24;;;;;;;18.83;15.33;;;;;;;;;;5077544;28;20212;-80
2021/03/23 02:07:50;;;;;;;21.80;17.40;;;;;;;;;;5070690;28;20475;-80
2021/03/23 02:10:16;;;;;;;23.40;16.10;;;;;;;;;;5069591;28;20189;-80
2021/03/23 02:12:43;;;;;;;25.50;18.93;;;;;;;;;;5077299;28;20180;-80
2021/03/23 02:15:09;;;;;;;28.17;18.27;;;;;;;;;;5055064;28;20451;-80
2021/03/23 02:17:37;;;;;;;27.05;19.73;;;;;;;;;;5075805;28;20880;-80
2021/03/23 02:20:08;;;;;;;28.85;20.10;;;;;;;;;;5074314;28;20196;-80
2021/03/23 02:22:40;;;;;;;33.45;19.88;;;;;;;;;;5073841;28;20227;-80
2021/03/23 02:25:09;;;;;;;31.00;21.15;;;;;;;;;;5073548;28;20615;-80
2021/03/23 02:27:35;;;;;;;29.77;19.98;;;;;;;;;;5076773;28;20212;-80
2021/03/23 02:30:01;;;;;;;25.75;18.83;;;;;;;;;;5076933;28;20182;-79
2021/03/23 02:32:27;;;;;;;26.58;19.30;;;;;;;;;;5074274;28;20189;-80
2021/03/23 02:34:54;;;;;;;32.55;21.83;;;;;;;;;;5057543;28;20300;-80
2021/03/23 02:37:19;;;;;;;27.98;19.10;;;;;;;;;;5077514;28;20678;-80
2021/03/23 02:39:45;;;;;;;34.40;22.93;;;;;;;;;;5077796;28;20181;-80
2021/03/23 02:42:12;;;;;;;28.70;20.42;;;;;;;;;;5080272;28;20423;-80
2021/03/23 02:44:44;;;;;;;30.40;21.00;;;;;;;;;;5077548;28;20273;-80
2021/03/23 02:47:11;;;;;;;33.92;21.88;;;;;;;;;;5059374;28;20235;-80
2021/03/23 02:49:37;;;;;;;28.73;22.60;;;;;;;;;;5079865;28;20192;-80
2021/03/23 02:52:04;;;;;;;29.25;22.45;;;;;;;;;;5079156;28;20181;-80
2021/03/23 02:54:30;;;;;;;31.85;23.55;;;;;;;;;;5074473;28;20196;-80
2021/03/23 02:56:56;;;;;;;30.52;22.00;;;;;;;;;;5056375;28;20267;-80
2021/03/23 02:59:22;;;;;;;32.30;22.37;;;;;;;;;;5080307;28;20208;-80
2021/03/23 03:01:48;;;;;;;29.38;21.85;;;;;;;;;;5080256;28;20445;-80
2021/03/23 03:04:14;;;;;;;28.97;22.13;;;;;;;;;;5063852;28;20641;-80
2021/03/23 03:06:40;;;;;;;34.75;20.75;;;;;;;;;;5077219;28;20830;-80
2021/03/23 03:09:06;;;;;;;29.83;21.87;;;;;;;;;;5075990;28;20217;-80
2021/03/23 03:11:32;;;;;;;28.90;20.75;;;;;;;;;;5076652;28;20425;-80
2021/03/23 03:13:59;;;;;;;36.53;21.10;;;;;;;;;;5079891;28;20184;-80
2021/03/23 03:16:25;;;;;;;33.97;21.63;;;;;;;;;;5061999;28;20180;-80
2021/03/23 03:18:51;;;;;;;29.35;19.83;;;;;;;;;;5096364;28;20191;-80
2021/03/23 03:21:17;;;;;;;27.00;20.67;;;;;;;;;;5096346;28;20188;-79
2021/03/23 03:23:43;;;;;;;30.58;21.67;;;;;;;;;;5076818;28;20436;-80
2021/03/23 03:26:09;;;;;;;41.25;23.75;;;;;;;;;;5077264;28;20631;-80
2021/03/23 03:28:35;;;;;;;31.90;21.83;;;;;;;;;;5079774;28;20177;-80
2021/03/23 03:31:02;;;;;;;37.40;21.17;;;;;;;;;;5078872;28;20184;-80
2021/03/23 03:33:28;;;;;;;38.90;23.92;;;;;;;;;;5077570;28;20204;-80
2021/03/23 03:35:54;;;;;;;35.67;24.55;;;;;;;;;;5074917;28;20295;-80
2021/03/23 03:38:20;;;;;;;33.90;23.87;;;;;;;;;;5076423;28;20318;-80
2021/03/23 03:40:54;;;;;;;40.08;23.17;;;;;;;;;;5068395;28;20439;-80
2021/03/23 03:43:21;;;;;;;30.85;23.50;;;;;;;;;;5074659;28;20184;-80
2021/03/23 03:45:47;;;;;;;34.95;22.73;;;;;;;;;;5078503;28;20201;-80
2021/03/23 03:48:13;;;;;;;38.65;22.08;;;;;;;;;;5077675;28;20215;-78
2021/03/23 03:50:39;;;;;;;38.00;22.30;;;;;;;;;;5096082;28;20290;-79
2021/03/23 03:53:06;;;;;;;36.88;22.77;;;;;;;;;;5095970;28;20248;-79
2021/03/23 03:55:40;;;;;;;42.05;28.15;;;;;;;;;;5084778;28;20213;-80
2021/03/23 03:58:06;;;;;;;36.80;23.92;;;;;;;;;;5074461;28;20230;-80
2021/03/23 04:00:33;;;;;;;56.75;23.25;;;;;;;;;;5078188;28;20188;-80
2021/03/23 04:03:00;;;;;;;32.80;23.15;;;;;;;;;;5070291;28;20598;-81
2021/03/23 04:05:33;;;;;;;33.40;22.02;;;;;;;;;;5072485;28;20684;-81
2021/03/23 04:08:00;;;;;;;38.08;22.65;;;;;;;;;;5075624;28;20276;-81
2021/03/23 04:10:26;;;;;;;33.65;25.05;;;;;;;;;;5075470;28;20238;-81
2021/03/23 04:12:53;;;;;;;38.67;23.10;;;;;;;;;;5078603;28;20559;-81
2021/03/23 04:15:20;;;;;;;33.70;24.23;;;;;;;;;;5078011;28;20284;-81
2021/03/23 04:17:46;;;;;;;32.97;23.42;;;;;;;;;;5078393;28;20259;-81
2021/03/23 04:20:13;;;;;;;32.83;21.50;;;;;;;;;;5076537;28;20206;-81
2021/03/23 04:22:39;;;;;;;35.88;23.63;;;;;;;;;;5084368;28;20434;-81
2021/03/23 04:25:06;;;;;;;31.73;22.83;;;;;;;;;;5057847;28;20295;-80
2021/03/23 04:27:32;;;;;;;28.52;20.85;;;;;;;;;;5060315;28;20201;-80
2021/03/23 04:29:58;;;;;;;36.83;23.43;;;;;;;;;;5078365;28;20188;-80
2021/03/23 04:32:24;;;;;;;33.28;22.23;;;;;;;;;;5053850;28;20428;-80
2021/03/23 04:34:50;;;;;;;33.33;22.17;;;;;;;;;;5067883;28;20219;-80
2021/03/23 04:37:16;;;;;;;33.03;23.27;;;;;;;;;;5063328;28;20440;-80
2021/03/23 04:39:42;;;;;;;36.90;23.73;;;;;;;;;;5068740;28;20431;-80
2021/03/23 04:42:08;;;;;;;36.33;23.40;;;;;;;;;;5077995;28;20487;-81
2021/03/23 04:44:34;;;;;;;34.97;23.27;;;;;;;;;;5078021;28;20200;-80
2021/03/23 04:47:00;;;;;;;34.78;22.65;;;;;;;;;;5078743;28;20195;-80
2021/03/23 04:49:26;;;;;;;41.43;24.27;;;;;;;;;;5075964;28;20668;-80
2021/03/23 04:51:52;;;;;;;35.22;22.23;;;;;;;;;;5071599;28;20443;-80
2021/03/23 04:54:18;;;;;;;35.60;23.67;;;;;;;;;;5057912;28;20204;-80
2021/03/23 04:56:44;;;;;;;37.37;23.23;;;;;;;;;;5054537;28;20438;-80
2021/03/23 04:59:11;;;;;;;39.03;22.90;;;;;;;;;;5058007;28;20430;-80
2021/03/23 05:01:38;;;;;;;32.20;22.60;;;;;;;;;;5060703;28;20600;-80
2021/03/23 05:04:20;;;;;;;51.55;24.50;;;;;;;;;;5072518;28;20218;-79
2021/03/23 05:06:46;;;;;;;29.30;21.98;;;;;;;;;;5092894;28;20218;-79
2021/03/23 05:09:12;;;;;;;38.15;23.20;;;;;;;;;;5068765;28;20182;-79
2021/03/23 05:11:39;;;;;;;42.78;21.42;;;;;;;;;;5075667;28;20200;-80
2021/03/23 05:14:05;;;;;;;35.58;23.52;;;;;;;;;;5075457;28;20181;-80
2021/03/23 05:16:32;;;;;;;32.60;22.13;;;;;;;;;;5076646;28;20208;-80
2021/03/23 05:18:58;;;;;;;32.22;21.73;;;;;;;;;;5077091;28;20204;-80
2021/03/23 05:21:24;;;;;;;39.45;23.35;;;;;;;;;;5076604;28;20234;-79
2021/03/23 05:23:53;;;;;;;43.03;23.00;;;;;;;;;;5076668;28;20651;-77
2021/03/23 05:26:19;;;;;;;34.78;22.73;;;;;;;;;;5076314;28;20200;-79
2021/03/23 05:28:46;;;;;;;43.87;23.83;;;;;;;;;;5076125;28;20212;-79
2021/03/23 05:31:13;;;;;;;35.38;22.85;;;;;;;;;;5074887;28;20407;-77
2021/03/23 05:33:39;;;;;;;32.15;22.80;;;;;;;;;;5077936;28;20181;-78
2021/03/23 05:36:05;;;;;;;32.27;21.07;;;;;;;;;;5091277;23;20335;-75
2021/03/23 05:38:31;;;;;;;40.38;23.25;;;;;;;;;;5067590;28;20424;-75
2021/03/23 05:41:02;;;;;;;48.05;24.00;;;;;;;;;;5054316;28;20577;-75
2021/03/23 05:43:31;;;;;;;27.45;20.58;;;;;;;;;;5067525;28;20180;-75
2021/03/23 05:45:57;;;;;;;32.35;20.23;;;;;;;;;;5071590;28;20193;-73
2021/03/23 05:48:25;;;;;;;33.77;23.30;;;;;;;;;;5055138;28;20670;-73
2021/03/23 05:51:00;;;;;;;32.55;22.05;;;;;;;;;;5050699;28;20431;-73
2021/03/23 05:53:28;;;;;;;39.38;22.55;;;;;;;;;;5042946;28;20177;-74
2021/03/23 05:55:58;;;;;;;37.10;22.73;;;;;;;;;;5053454;28;20200;-74
2021/03/23 05:58:26;;;;;;;38.45;24.17;;;;;;;;;;5055080;28;20188;-74
2021/03/23 06:00:59;;;;;;;34.28;22.80;;;;;;;;;;5049763;28;20178;-73
2021/03/23 06:03:31;;;;;;;32.53;21.67;;;;;;;;;;5040851;28;20189;-73
2021/03/23 06:05:56;;;;;;;33.35;21.77;;;;;;;;;;5042500;28;20743;-73
2021/03/23 06:08:27;;;;;;;34.17;21.50;;;;;;;;;;5048619;28;20268;-73
2021/03/23 06:11:10;;;;;;;43.53;23.40;;;;;;;;;;5054670;28;20923;-72
2021/03/23 06:13:44;;;;;;;32.42;20.80;;;;;;;;;;5054277;28;20174;-71
2021/03/23 06:16:29;;;;;;;29.38;20.55;;;;;;;;;;5055339;28;20246;-73
2021/03/23 06:19:01;;;;;;;28.67;20.85;;;;;;;;;;5055519;28;20640;-73
2021/03/23 06:21:31;;;;;;;35.35;23.33;;;;;;;;;;5053246;28;20185;-73
2021/03/23 06:24:04;;;;;;;30.85;21.20;;;;;;;;;;5049134;28;20170;-72
2021/03/23 06:26:49;;;;;;;35.22;22.17;;;;;;;;;;5054794;28;20201;-73
2021/03/23 06:29:17;;;;;;;34.25;22.30;;;;;;;;;;5053984;28;20177;-73
2021/03/23 06:31:58;;;;;;;33.25;22.80;;;;;;;;;;5055122;28;20174;-73
2021/03/23 06:34:29;;;;;;;31.42;22.77;;;;;;;;;;5054697;28;20177;-73
2021/03/23 06:36:56;;;;;;;34.88;23.70;;;;;;;;;;5054751;28;20260;-73
2021/03/23 06:39:22;;;;;;;28.73;22.13;;;;;;;;;;5038111;28;20196;-73
2021/03/23 06:41:52;;;;;;;30.27;21.30;;;;;;;;;;5054918;28;20193;-72
2021/03/23 06:44:27;;;;;;;38.75;21.70;;;;;;;;;;5046112;28;20232;-70
2021/03/23 06:46:54;;;;;;;32.28;22.63;;;;;;;;;;5034884;28;20287;-70
2021/03/23 06:49:26;;;;;;;31.83;22.40;;;;;;;;;;5042666;28;20173;-71
2021/03/23 06:51:51;;;;;;;32.15;21.33;;;;;;;;;;5049301;28;20185;-71
2021/03/23 06:54:20;;;;;;;37.73;22.37;;;;;;;;;;5051142;28;20177;-71
2021/03/23 06:56:47;;;;;;;30.08;21.33;;;;;;;;;;5053825;28;20412;-71
2021/03/23 06:59:15;;;;;;;34.60;23.00;;;;;;;;;;5046129;28;20217;-71
2021/03/23 07:01:45;;;;;;;27.63;21.58;;;;;;;;;;5045952;28;20177;-71
2021/03/23 07:04:19;;;;;;;36.60;20.02;;;;;;;;;;5054548;28;20174;-71
2021/03/23 07:06:45;;;;;;;38.03;22.02;;;;;;;;;;5054366;28;20209;-71
2021/03/23 07:09:16;;;;;;;29.73;21.83;;;;;;;;;;5052900;28;20181;-70
2021/03/23 07:11:54;;;;;;;32.08;20.73;;;;;;;;;;5053354;28;20696;-73
2021/03/23 07:14:22;;;;;;;29.10;20.42;;;;;;;;;;5054055;28;20184;-72
2021/03/23 07:16:48;;;;;;;36.22;23.02;;;;;;;;;;5054222;28;20256;-71
2021/03/23 07:19:14;;;;;;;31.40;22.52;;;;;;;;;;5053920;28;20186;-71
2021/03/23 07:21:43;;;;;;;33.50;19.85;;;;;;;;;;5053947;28;20211;-72
2021/03/23 07:24:14;;;;;;;34.20;23.23;;;;;;;;;;5054503;28;20170;-72
2021/03/23 07:26:41;;;;;;;36.22;23.33;;;;;;;;;;5054276;28;20602;-74
2021/03/23 07:29:10;;;;;;;34.70;23.25;;;;;;;;;;5052119;28;20212;-72
2021/03/23 07:31:41;;;;;;;37.22;22.58;;;;;;;;;;5045185;28;20232;-71
2021/03/23 07:34:13;;;;;;;35.15;23.30;;;;;;;;;;5054063;28;20177;-73
2021/03/23 07:36:42;;;;;;;32.20;24.10;;;;;;;;;;5053853;28;20771;-72
2021/03/23 07:39:31;;;;;;;32.47;22.85;;;;;;;;;;5052652;28;20213;-72
2021/03/23 07:41:59;;;;;;;32.63;21.77;;;;;;;;;;5014595;28;20298;-72
2021/03/23 07:44:40;;;;;;;29.42;20.90;;;;;;;;;;5051273;28;20209;-71
2021/03/23 07:47:14;;;;;;;29.92;21.00;;;;;;;;;;5044030;28;20197;-72
2021/03/23 07:49:48;;;;;;;29.52;19.20;;;;;;;;;;5052910;28;20177;-72
2021/03/23 07:52:28;;;;;;;33.35;21.45;;;;;;;;;;5033400;28;20251;-72
2021/03/23 07:54:57;;;;;;;28.67;18.45;;;;;;;;;;5033609;28;20248;-72
2021/03/23 07:57:23;;;;;;;30.17;20.95;;;;;;;;;;5033623;28;20188;-72
2021/03/23 08:00:07;;;;;;;35.20;20.33;;;;;;;;;;5033302;28;20254;-72
2021/03/23 08:02:39;;;;;;;32.20;20.20;;;;;;;;;;5033215;28;20910;-72
2021/03/23 08:05:26;;;;;;;28.90;18.98;;;;;;;;;;5050477;28;20267;-72
2021/03/23 08:07:53;;;;;;;25.73;19.63;;;;;;;;;;5052401;28;20216;-72
2021/03/23 08:10:25;;;;;;;28.95;18.92;;;;;;;;;;5049980;28;20173;-72
2021/03/23 08:13:09;;;;;;;27.35;18.88;;;;;;;;;;5051435;28;20631;-72
2021/03/23 08:15:58;;;;;;;30.83;18.08;;;;;;;;;;5050523;28;20563;-72
2021/03/23 08:18:30;;;;;;;24.17;17.63;;;;;;;;;;5049899;28;20193;-74
2021/03/23 08:21:08;;;;;;;28.67;19.95;;;;;;;;;;5050121;28;20682;-72
2021/03/23 08:23:34;;;;;;;25.25;16.80;;;;;;;;;;5052721;28;20589;-72
2021/03/23 08:26:09;;;;;;;25.90;17.93;;;;;;;;;;5052861;28;20281;-72
2021/03/23 08:28:38;;;;;;;29.13;17.80;;;;;;;;;;5052688;28;20534;-72
2021/03/23 08:31:23;;;;;;;25.85;18.55;;;;;;;;;;5052105;28;20206;-72
2021/03/23 08:33:49;;;;;;;24.83;18.42;;;;;;;;;;5052630;28;20222;-72
2021/03/23 08:36:31;;;;;;;29.80;17.95;;;;;;;;;;5052556;28;20244;-71
2021/03/23 08:38:57;;;;;;;22.83;17.55;;;;;;;;;;5047430;28;20238;-72
2021/03/23 08:41:28;;;;;;;26.20;16.77;;;;;;;;;;5041482;28;20256;-72
2021/03/23 08:43:55;;;;;;;21.63;15.18;;;;;;;;;;5052347;28;20478;-72
2021/03/23 08:46:27;;;;;;;26.02;16.90;;;;;;;;;;5051783;28;20210;-72
2021/03/23 08:48:55;;;;;;;25.65;16.45;;;;;;;;;;5032842;28;20185;-71
2021/03/23 08:51:23;;;;;;;21.40;15.45;;;;;;;;;;5032798;28;20201;-72
2021/03/23 08:53:55;;;;;;;24.38;16.98;;;;;;;;;;5032473;28;20175;-71
2021/03/23 08:56:40;;;;;;;23.55;16.23;;;;;;;;;;5036987;28;20197;-71
2021/03/23 08:59:26;;;;;;;22.17;16.10;;;;;;;;;;5051486;28;20268;-72
2021/03/23 09:01:52;;;;;;;26.75;17.20;;;;;;;;;;5052571;28;20676;-73
2021/03/23 09:04:28;;;;;;;23.23;15.95;;;;;;;;;;5052284;28;20661;-73
2021/03/23 09:06:56;;;;;;;24.88;17.17;;;;;;;;;;5052443;28;20196;-71
2021/03/23 09:09:27;;;;;;;21.30;16.77;;;;;;;;;;5051136;28;20177;-71
2021/03/23 09:12:03;;;;;;;27.08;17.17;;;;;;;;;;5051823;28;20256;-71
2021/03/23 09:14:30;;;;;;;19.13;15.38;;;;;;;;;;5051885;28;20169;-72
2021/03/23 09:16:59;;;;;;;20.48;16.38;;;;;;;;;;5025677;28;20534;-72
2021/03/23 09:19:43;;;;;;;23.65;15.70;;;;;;;;;;5048672;28;20186;-71
2021/03/23 09:22:21;;;;;;;29.25;16.50;;;;;;;;;;5031858;28;20181;-72
2021/03/23 09:24:48;;;;;;;21.38;14.40;;;;;;;;;;5032003;28;20310;-72
2021/03/23 09:27:37;;;;;;;20.83;16.08;;;;;;;;;;5032018;28;20201;-71
2021/03/23 09:30:22;;;;;;;24.85;15.05;;;;;;;;;;5046822;28;20188;-71
2021/03/23 09:33:24;;;;;;;24.67;16.55;;;;;;;;;;5051501;28;20641;-71
2021/03/23 09:36:07;;;;;;;22.75;14.23;;;;;;;;;;4951017;28;20219;-71
2021/03/23 09:38:40;;;;;;;25.80;17.30;;;;;;;;;;5043272;28;20194;-71
2021/03/23 09:41:07;;;;;;;23.60;15.93;;;;;;;;;;5051467;28;20291;-73
2021/03/23 09:43:42;;;;;;;21.27;16.65;;;;;;;;;;5051224;28;20214;-71
2021/03/23 09:46:23;;;;;;;19.63;14.50;;;;;;;;;;5044475;28;20202;-71
2021/03/23 09:49:08;;;;;;;28.17;14.30;;;;;;;;;;5046406;28;20181;-71
2021/03/23 09:51:40;;;;;;;23.48;14.82;;;;;;;;;;5049683;28;20182;-71
2021/03/23 09:54:26;;;;;;;23.60;13.88;;;;;;;;;;5051067;28;20232;-71
2021/03/23 09:56:53;;;;;;;21.10;14.93;;;;;;;;;;5031667;28;20189;-71
2021/03/23 09:59:21;;;;;;;22.73;15.07;;;;;;;;;;5031365;28;20174;-71
2021/03/23 10:01:56;;;;;;;22.73;16.35;;;;;;;;;;5031556;28;20183;-71
2021/03/23 10:04:29;;;;;;;24.55;14.25;;;;;;;;;;5031530;28;20371;-71
2021/03/23 10:06:56;;;;;;;21.83;15.20;;;;;;;;;;5031754;28;20742;-73
2021/03/23 10:09:25;;;;;;;20.55;15.18;;;;;;;;;;5031641;28;20179;-74
2021/03/23 10:11:51;;;;;;;24.05;15.70;;;;;;;;;;5038876;28;20663;-74
2021/03/23 10:14:33;;;;;;;20.17;15.50;;;;;;;;;;5051160;28;20584;-73
2021/03/23 10:17:13;;;;;;;19.17;14.63;;;;;;;;;;5041402;28;20184;-73
2021/03/23 10:19:48;;;;;;;23.13;15.18;;;;;;;;;;5046550;28;20177;-73
2021/03/23 10:22:18;;;;;;;24.73;15.60;;;;;;;;;;5050863;28;20208;-73
2021/03/23 10:24:47;;;;;;;19.42;14.57;;;;;;;;;;5051252;28;20564;-74
2021/03/23 10:27:14;;;;;;;17.40;13.77;;;;;;;;;;5051030;28;20292;-71
2021/03/23 10:29:53;;;;;;;19.63;12.77;;;;;;;;;;5051057;28;20208;-72
2021/03/23 10:32:35;;;;;;;22.63;15.05;;;;;;;;;;5049563;28;20668;-72
2021/03/23 10:35:09;;;;;;;18.60;13.85;;;;;;;;;;5050875;28;20680;-71
2021/03/23 10:37:35;;;;;;;16.85;12.55;;;;;;;;;;5051298;28;20192;-72
2021/03/23 10:40:03;;;;;;;18.48;13.68;;;;;;;;;;5051353;28;20551;-71
2021/03/23 10:42:30;;;;;;;22.75;14.60;;;;;;;;;;5050897;28;20623;-72
2021/03/23 10:45:14;;;;;;;18.98;14.73;;;;;;;;;;5050805;28;20205;-71
2021/03/23 10:47:45;;;;;;;16.00;13.38;;;;;;;;;;5042655;28;20300;-71
2021/03/23 10:50:15;;;;;;;21.83;15.13;;;;;;;;;;5051095;28;20169;-71
2021/03/23 10:52:41;;;;;;;20.15;14.63;;;;;;;;;;5049000;28;20562;-72
2021/03/23 10:55:12;;;;;;;16.65;14.27;;;;;;;;;;5054672;28;20711;-72
2021/03/23 10:57:39;;;;;;;23.88;14.23;;;;;;;;;;5054509;28;20177;-71
2021/03/23 11:00:22;;;;;;;17.23;13.98;;;;;;;;;;5054351;28;20265;-71
2021/03/23 11:02:48;;;;;;;21.88;14.00;;;;;;;;;;5054447;28;20226;-71
2021/03/23 11:05:15;;;;;;;15.90;13.67;;;;;;;;;;5054542;28;20693;-72
2021/03/23 11:07:54;;;;;;;17.23;15.43;;;;;;;;;;5053699;28;20867;-73
2021/03/23 11:10:22;;;;;;;17.88;13.60;;;;;;;;;;5054359;28;20173;-74
2021/03/23 11:12:47;;;;;;;18.27;13.80;;;;;;;;;;5054135;28;20178;-72
2021/03/23 11:15:14;;;;;;;19.17;14.67;;;;;;;;;;5044683;28;20283;-71
2021/03/23 11:17:47;;;;;;;16.50;14.05;;;;;;;;;;5043315;28;20928;-74
2021/03/23 11:20:21;;;;;;;18.35;14.30;;;;;;;;;;5044539;28;20210;-74
2021/03/23 11:22:49;;;;;;;22.92;14.85;;;;;;;;;;5054035;28;20656;-72
2021/03/23 11:25:19;;;;;;;22.27;13.17;;;;;;;;;;5054495;28;20203;-71
2021/03/23 11:27:45;;;;;;;15.18;13.50;;;;;;;;;;5054152;28;20968;-72
2021/03/23 11:30:11;;;;;;;18.13;14.03;;;;;;;;;;5053226;28;20187;-71
2021/03/23 11:32:37;;;;;;;16.60;14.65;;;;;;;;;;5053720;28;20459;-71
2021/03/23 11:35:04;;;;;;;24.43;15.03;;;;;;;;;;5053760;28;20695;-71
2021/03/23 11:37:30;;;;;;;20.67;14.40;;;;;;;;;;5081485;23;20598;-72
2021/03/23 11:39:56;;;;;;;23.10;15.33;;;;;;;;;;5071084;28;20457;-72
2021/03/23 11:42:35;;;;;;;20.20;15.47;;;;;;;;;;5067785;28;20418;-72
2021/03/23 11:45:03;;;;;;;17.92;15.05;;;;;;;;;;5070241;28;20466;-72
2021/03/23 11:47:44;;;;;;;24.13;15.90;;;;;;;;;;5035391;28;20234;-73
2021/03/23 11:50:21;;;;;;;17.45;15.10;;;;;;;;;;5035120;28;20228;-72
2021/03/23 11:52:48;;;;;;;21.77;15.43;;;;;;;;;;5053584;28;20673;-72
2021/03/23 11:55:16;;;;;;;22.13;15.68;;;;;;;;;;5053639;28;20177;-72
2021/03/23 11:57:42;;;;;;;17.52;15.73;;;;;;;;;;5061173;28;20216;-72
2021/03/23 12:00:09;;;;;;;20.02;16.05;;;;;;;;;;5044653;28;20173;-72
2021/03/23 12:02:35;;;;;;;24.20;15.27;;;;;;;;;;5069119;28;20177;-72
2021/03/23 12:05:01;;;;;;;22.10;15.65;;;;;;;;;;5072103;28;20189;-72
2021/03/23 12:07:44;;;;;;;17.48;15.45;;;;;;;;;;5073161;28;20204;-72
2021/03/23 12:10:14;;;;;;;20.63;16.40;;;;;;;;;;5072831;28;20173;-72
2021/03/23 12:12:59;;;;;;;24.33;17.65;;;;;;;;;;5069855;28;20268;-72
2021/03/23 12:15:35;;;;;;;19.80;16.05;;;;;;;;;;5065971;28;20181;-72
2021/03/23 12:18:07;;;;;;;28.65;17.85;;;;;;;;;;5073221;28;20196;-72
2021/03/23 12:20:36;;;;;;;23.65;16.17;;;;;;;;;;5073311;28;20632;-72
2021/03/23 12:23:02;;;;;;;19.63;16.27;;;;;;;;;;5072607;28;20697;-72
2021/03/23 12:25:28;;;;;;;19.70;15.63;;;;;;;;;;5072391;28;20229;-72
2021/03/23 12:27:54;;;;;;;19.93;15.13;;;;;;;;;;5058961;28;20208;-72
2021/03/23 12:30:22;;;;;;;22.40;13.83;;;;;;;;;;5065604;28;20472;-73
2021/03/23 12:32:48;;;;;;;17.60;15.80;;;;;;;;;;5071787;28;20906;-73
2021/03/23 12:35:19;;;;;;;21.83;15.73;;;;;;;;;;5072746;28;20920;-73
2021/03/23 12:37:47;;;;;;;15.53;13.77;;;;;;;;;;5072320;28;20540;-73
2021/03/23 12:40:14;;;;;;;19.73;15.43;;;;;;;;;;5072645;28;20818;-73
2021/03/23 12:42:40;;;;;;;18.53;13.53;;;;;;;;;;5069753;28;20517;-73
2021/03/23 12:45:08;;;;;;;18.37;15.37;;;;;;;;;;5072420;28;20399;-73
2021/03/23 12:47:34;;;;;;;18.17;15.30;;;;;;;;;;5072381;28;20523;-73
2021/03/23 12:50:00;;;;;;;16.00;14.50;;;;;;;;;;5070493;28;20462;-72
2021/03/23 12:52:26;;;;;;;14.40;12.87;;;;;;;;;;5071176;28;20434;-73
2021/03/23 12:54:55;;;;;;;18.63;14.67;;;;;;;;;;5072330;28;20418;-73
2021/03/23 12:57:23;;;;;;;18.03;14.53;;;;;;;;;;5057601;28;20450;-73
2021/03/23 12:59:49;;;;;;;18.33;15.30;;;;;;;;;;5061425;28;20468;-73
2021/03/23 13:02:20;;;;;;;17.80;14.80;;;;;;;;;;5063541;28;20407;-72
2021/03/23 13:04:46;;;;;;;18.40;15.70;;;;;;;;;;5072178;28;20393;-73
2021/03/23 13:07:18;;;;;;;17.97;14.90;;;;;;;;;;5070716;28;20518;-73
2021/03/23 13:09:44;;;;;;;17.50;15.20;;;;;;;;;;5072222;28;20388;-73
2021/03/23 13:12:10;;;;;;;16.47;14.80;;;;;;;;;;5062863;28;20416;-72
2021/03/23 13:14:38;;;;;;;16.63;13.60;;;;;;;;;;5072147;28;20414;-73
2021/03/23 13:17:04;;;;;;;19.50;15.57;;;;;;;;;;5071658;28;20786;-72
2021/03/23 13:19:30;;;;;;;16.58;14.60;;;;;;;;;;5071956;28;20408;-72
2021/03/23 13:22:00;;;;;;;16.10;13.53;;;;;;;;;;5071650;28;20177;-73
2021/03/23 13:24:40;;;;;;;19.85;15.23;;;;;;;;;;5071944;28;20438;-72
2021/03/23 13:27:19;;;;;;;24.15;17.05;;;;;;;;;;5056613;28;20204;-72
2021/03/23 13:29:46;;;;;;;17.92;15.57;;;;;;;;;;5060525;28;20174;-72
2021/03/23 13:32:12;;;;;;;23.13;16.27;;;;;;;;;;5045218;28;20188;-72
2021/03/23 13:34:38;;;;;;;18.23;14.07;;;;;;;;;;5071888;28;20172;-72
2021/03/23 13:37:06;;;;;;;18.33;14.75;;;;;;;;;;5071603;28;20212;-72
2021/03/23 13:39:36;;;;;;;40.00;23.13;;;;;;;;;;5071824;28;20207;-72
2021/03/23 13:42:14;;;;;;;24.60;16.75;;;;;;;;;;5055376;28;20594;-73
2021/03/23 13:44:44;;;;;;;21.92;16.23;;;;;;;;;;5071422;28;20655;-72
2021/03/23 13:47:10;;;;;;;20.90;16.48;;;;;;;;;;5071635;28;20244;-72
2021/03/23 13:49:37;;;;;;;23.90;16.07;;;;;;;;;;5053838;28;20211;-72
2021/03/23 13:52:03;;;;;;;20.92;16.20;;;;;;;;;;5071569;28;20411;-73
2021/03/23 13:54:29;;;;;;;19.25;14.73;;;;;;;;;;5071732;28;20169;-72
2021/03/23 13:56:56;;;;;;;23.20;15.10;;;;;;;;;;5055011;28;20769;-72
2021/03/23 13:59:22;;;;;;;23.60;16.45;;;;;;;;;;5056977;28;20256;-73
2021/03/23 14:01:49;;;;;;;20.08;16.58;;;;;;;;;;5062776;28;20670;-72
2021/03/23 14:04:15;;;;;;;21.90;17.45;;;;;;;;;;5071076;28;20593;-72
2021/03/23 14:06:41;;;;;;;18.77;15.38;;;;;;;;;;5071286;28;20208;-73
2021/03/23 14:09:09;;;;;;;26.35;19.38;;;;;;;;;;5071552;28;20242;-72
2021/03/23 14:11:35;;;;;;;21.35;16.52;;;;;;;;;;5056359;28;20181;-72
2021/03/23 14:14:01;;;;;;;19.10;16.40;;;;;;;;;;5063312;28;20204;-73
2021/03/23 14:16:27;;;;;;;20.40;16.90;;;;;;;;;;5071400;28;20196;-72
2021/03/23 14:18:53;;;;;;;19.60;16.87;;;;;;;;;;5071442;28;20173;-72
2021/03/23 14:21:21;;;;;;;18.80;16.10;;;;;;;;;;5071355;28;20399;-72
2021/03/23 14:23:47;;;;;;;21.30;14.93;;;;;;;;;;5068980;28;20435;-72
2021/03/23 14:26:14;;;;;;;23.02;16.20;;;;;;;;;;5058064;28;20225;-72
2021/03/23 14:28:49;;;;;;;20.45;15.65;;;;;;;;;;5056349;28;20207;-72